Aviation Digital Data Service (ADDS)

Output produced by METARs form (0754 UTC 23 April 2018)
found at http://aviationweather.gov/adds/metars/
 
KBFD 230653Z AUTO 15003KT 10SM CLR 04/M08 A3036 RMK AO2 SLP284 T00441078
KBFD 230553Z AUTO 14003KT 10SM CLR 04/M07 A3036 RMK AO2 SLP286 T00391072 10133 20028 50002
KBFD 230453Z AUTO 11003KT 10SM CLR 03/M07 A3037 RMK AO2 SLP289 T00331067 401611033
KBFD 230353Z AUTO 00000KT 10SM CLR 07/M08 A3037 RMK AO2 SLP287 T00671078
KBFD 230253Z AUTO 09006KT 10SM CLR 08/M08 A3036 RMK AO2 SLP284 T00781083 50010
KBFD 230153Z AUTO 07004KT 10SM CLR 09/M09 A3036 RMK AO2 SLP285 T00891094
KBFD 230053Z AUTO 06003KT 10SM CLR 11/M11 A3034 RMK AO2 SLP279 T01111106
KBFD 222353Z AUTO 06004KT 10SM CLR 13/M11 A3032 RMK AO2 SLP276 T01281106 10161 20128 53002
KBFD 222253Z AUTO 06007KT 10SM CLR 15/M11 A3031 RMK AO2 SLP273 T01501111
KBFD 222153Z AUTO 06007KT 10SM CLR 16/M12 A3032 RMK AO2 SLP276 T01561122 $
KBFD 222053Z AUTO VRB05KT 10SM CLR 16/M13 A3032 RMK AO2 SLP275 T01611128 56015 $
KBFD 221953Z AUTO 36008KT 10SM CLR 16/M12 A3033 RMK AO2 SLP279 T01611117 $
KBFD 221853Z AUTO 08008KT 10SM CLR 15/M11 A3035 RMK AO2 SLP284 T01501111 $
KBFD 221753Z AUTO VRB06KT 10SM CLR 14/M12 A3036 RMK AO2 SLP290 T01441122 10150 20011 56014 $
KBFD 221653Z AUTO 16005KT 10SM CLR 13/M10 A3037 RMK AO2 SLP295 T01281100 $
KBFD 221553Z AUTO 08007KT 040V110 10SM CLR 12/M09 A3039 RMK AO2 SLP299 T01221089 $
KBFD 221453Z AUTO 11009KT 10SM CLR 11/M08 A3041 RMK AO2 SLP304 T01061083 50003 $
KBFD 221353Z AUTO 08009KT 10SM CLR 09/M08 A3041 RMK AO2 SLP306 T00941078 $
KBFD 221253Z AUTO 12004KT 10SM CLR 07/M05 A3041 RMK AO2 SLP306 T00671050 $
KBFD 221153Z AUTO 00000KT 10SM CLR 01/M03 A3040 RMK AO2 SLP307 T00111033 10011 21033 53009 $
KBFD 221053Z AUTO 00000KT 10SM CLR M03/M06 A3038 RMK AO2 SLP302 T10331061 $
KBFD 220953Z AUTO 00000KT 10SM CLR M03/M07 A3037 RMK AO2 SLP296 T10281072 $
KBFD 220853Z AUTO 00000KT 10SM CLR M03/M07 A3037 RMK AO2 SLP295 T10281072 55003 $
KBFD 220753Z AUTO 00000KT 10SM M02/M07 A3037 RMK AO2 SLP293 T10171072 $
KBFD 220653Z AUTO 00000KT 10SM CLR M01/M07 A3037 RMK AO2 SLP294 T10061072
KBFD 220553Z AUTO 00000KT 10SM CLR M01/M07 A3038 RMK AO2 SLP298 T10061072 10078 21011 56001
KBFD 220453Z AUTO 00000KT 10SM CLR M01/M06 A3038 RMK AO2 SLP299 T10061061 401221050
KBFD 220353Z AUTO 01003KT 10SM CLR 03/M07 A3038 RMK AO2 SLP297 T00281072
KBFD 220253Z AUTO 01005KT 10SM CLR 05/M08 A3038 RMK AO2 SLP298 T00501083 51007
KBFD 220153Z AUTO 02003KT 10SM CLR 06/M09 A3038 RMK AO2 SLP297 T00611089
KBFD 220053Z AUTO 36005KT 10SM CLR 07/M09 A3037 RMK AO2 SLP296 T00721089
KBFD 212353Z AUTO 35006KT 10SM CLR 08/M07 A3036 RMK AO2 SLP295 T00781067 10122 20078 53007
KBFD 212253Z AUTO 35007KT 10SM CLR 10/M08 A3034 RMK AO2 SLP289 T01001078
KBFD 212153Z AUTO 34009KT 10SM CLR 11/M09 A3034 RMK AO2 SLP289 T01111089
KBFD 212053Z AUTO 35011KT 10SM CLR 12/M08 A3033 RMK AO2 SLP285 T01221083 56015